Time;durP1;ratioP1;P1;durP2;ratioP2;P2;SDS_P1;SDS_P2;PMS_P1;PMS_P2;Temp;Humidity;BMP_temperature;BMP_pressure;BME280_temperature;BME280_humidity;BME280_pressure;Samples;Min_cycle;Max_cycle;Signal;HPM_P1;HPM_P2
2022/02/02 00:00:17;;;;;;;;;;;8.80;99.90;;;;;;5016196;28;20660;-68
2022/02/02 00:02:48;;;;;;;;;;;8.90;99.90;;;;;;5021429;28;20391;-68
2022/02/02 00:05:21;;;;;;;;;;;8.90;99.90;;;;;;5022051;28;19932;-72
2022/02/02 00:07:53;;;;;;;;;;;8.90;99.90;;;;;;5023732;28;19934;-69
2022/02/02 00:10:45;;;;;;;;;;;8.80;99.90;;;;;;5018246;28;20012;-69
2022/02/02 00:13:28;;;;;;;;;;;8.80;99.90;;;;;;5016582;28;20026;-68
2022/02/02 00:16:02;;;;;;;;;;;8.80;99.90;;;;;;5017986;28;19932;-68
2022/02/02 00:18:46;;;;;;;;;;;8.90;99.90;;;;;;5014936;28;19925;-69
2022/02/02 00:21:19;;;;;;;;;;;8.90;99.90;;;;;;5018446;28;19926;-69
2022/02/02 00:23:49;;;;;;;;;;;8.90;99.90;;;;;;5017657;28;19933;-69
2022/02/02 00:26:22;;;;;;;;;;;8.90;99.90;;;;;;5017462;28;19979;-69
2022/02/02 00:28:53;;;;;;;;;;;8.90;99.90;;;;;;5018163;28;19966;-69
2022/02/02 00:31:25;;;;;;;;;;;8.90;99.90;;;;;;5018070;28;19929;-68
2022/02/02 00:33:56;;;;;;;;;;;8.90;99.90;;;;;;5017661;28;19925;-69
2022/02/02 00:36:27;;;;;;;;;;;8.90;99.90;;;;;;5017137;28;19969;-68
2022/02/02 00:38:53;;;;;;;;;;;8.90;99.90;;;;;;5026493;28;19925;-68
2022/02/02 00:41:21;;;;;;;;;;;8.80;99.90;;;;;;5015523;28;19934;-69
2022/02/02 00:43:54;;;;;;;;;;;8.70;99.90;;;;;;5019261;28;19933;-69
2022/02/02 00:46:24;;;;;;;;;;;8.70;99.90;;;;;;5018428;28;20668;-69
2022/02/02 00:48:57;;;;;;;;;;;8.80;99.90;;;;;;5015880;28;19925;-69
2022/02/02 00:51:25;;;;;;;;;;;8.80;99.90;;;;;;5013402;28;19926;-69
2022/02/02 00:53:52;;;;;;;;;;;8.90;99.90;;;;;;5018374;28;21835;-68
2022/02/02 00:56:19;;;;;;;;;;;8.90;99.90;;;;;;5015247;28;19937;-68
2022/02/02 00:58:47;;;;;;;;;;;8.90;99.90;;;;;;5017689;28;19933;-68
2022/02/02 01:01:13;;;;;;;;;;;9.00;99.90;;;;;;5016228;28;20043;-69
2022/02/02 01:03:40;;;;;;;;;;;9.10;99.90;;;;;;5017034;28;19925;-68
2022/02/02 01:06:09;;;;;;;;;;;9.10;99.90;;;;;;5015547;28;20396;-69
2022/02/02 01:08:54;;;;;;;;;;;9.10;99.90;;;;;;5015780;28;19933;-69
2022/02/02 01:11:45;;;;;;;;;;;9.10;99.90;;;;;;5014357;28;21040;-69
2022/02/02 01:20:01;;;;;;;;;;;9.10;99.90;;;;;;5016361;28;19933;-69
2022/02/02 01:28:01;;;;;;;;;;;9.20;99.90;;;;;;4981281;28;19925;-72
2022/02/02 01:30:29;;;;;;;;;;;9.20;99.90;;;;;;5015190;28;21023;-69
2022/02/02 01:32:56;;;;;;;;;;;9.20;99.90;;;;;;5017722;28;19964;-69
2022/02/02 01:35:22;;;;;;;;;;;9.20;99.90;;;;;;5015837;28;19932;-70
2022/02/02 01:37:49;;;;;;;;;;;9.10;99.90;;;;;;5016939;28;19991;-70
2022/02/02 01:40:22;;;;;;;;;;;9.20;99.90;;;;;;5014922;28;20491;-69
2022/02/02 01:42:54;;;;;;;;;;;9.10;99.90;;;;;;5019212;28;19968;-70
2022/02/02 01:45:25;;;;;;;;;;;9.10;99.90;;;;;;5014507;28;19926;-70
2022/02/02 01:48:06;;;;;;;;;;;9.10;99.90;;;;;;5022605;28;20677;-70
2022/02/02 01:50:45;;;;;;;;;;;9.10;99.90;;;;;;5019925;28;19925;-70
2022/02/02 01:53:20;;;;;;;;;;;9.10;99.90;;;;;;5018913;28;20343;-70
2022/02/02 01:55:47;;;;;;;;;;;9.10;99.90;;;;;;5017742;28;19976;-69
2022/02/02 01:58:31;;;;;;;;;;;9.20;99.90;;;;;;5021980;28;19929;-70
2022/02/02 02:00:58;;;;;;;;;;;9.20;99.90;;;;;;5021691;28;19948;-70
2022/02/02 02:03:26;;;;;;;;;;;9.20;99.90;;;;;;5019801;28;19925;-71
2022/02/02 02:05:53;;;;;;;;;;;9.20;99.90;;;;;;5019865;28;19929;-70
2022/02/02 02:08:20;;;;;;;;;;;9.20;99.90;;;;;;5018367;28;19933;-70
2022/02/02 02:10:46;;;;;;;;;;;9.10;99.90;;;;;;5017193;28;19969;-70
2022/02/02 02:13:18;;;;;;;;;;;9.10;99.90;;;;;;5018830;28;20030;-70
2022/02/02 02:15:45;;;;;;;;;;;9.10;99.90;;;;;;5020245;28;19968;-70
2022/02/02 02:18:15;;;;;;;;;;;9.10;99.90;;;;;;5020203;28;19948;-71
2022/02/02 02:20:43;;;;;;;;;;;9.10;99.90;;;;;;5017494;28;19933;-70
2022/02/02 02:23:11;;;;;;;;;;;9.10;99.90;;;;;;5016675;28;19933;-70
2022/02/02 02:25:39;;;;;;;;;;;9.20;99.90;;;;;;5019873;28;20399;-70
2022/02/02 02:28:14;;;;;;;;;;;9.20;99.90;;;;;;5017884;28;19960;-70
2022/02/02 02:30:47;;;;;;;;;;;9.20;99.90;;;;;;5018321;28;19967;-70
2022/02/02 02:58:11;;;;;;;;;;;9.10;99.90;;;;;;4952975;28;20072;-70
2022/02/02 03:00:54;;;;;;;;;;;9.00;99.90;;;;;;4960955;28;19937;-70
2022/02/02 03:31:14;;;;;;;;;;;8.70;99.90;;;;;;5014821;28;19995;-70
2022/02/02 03:50:34;;;;;;;;;;;8.20;99.90;;;;;;5016578;28;19980;-69
2022/02/02 03:59:10;;;;;;;;;;;8.10;99.90;;;;;;4929147;29;19934;-70
2022/02/02 04:04:39;;;;;;;;;;;8.10;99.90;;;;;;5015359;28;20004;-70
2022/02/02 04:07:09;;;;;;;;;;;8.20;99.90;;;;;;5014958;28;19952;-70
2022/02/02 04:09:38;;;;;;;;;;;8.10;99.90;;;;;;5016652;28;19940;-70
2022/02/02 04:12:13;;;;;;;;;;;8.20;99.90;;;;;;5015610;28;19932;-70
2022/02/02 04:18:05;;;;;;;;;;;8.30;99.90;;;;;;5016303;28;20438;-69
2022/02/02 04:56:23;;;;;;;;;;;8.50;99.90;;;;;;5015225;28;20767;-70
2022/02/02 04:59:00;;;;;;;;;;;8.50;99.90;;;;;;5014612;28;19933;-70
2022/02/02 05:04:45;;;;;;;;;;;8.50;99.90;;;;;;4956024;28;19937;-69
2022/02/02 05:07:18;;;;;;;;;;;8.50;99.90;;;;;;5008637;28;19936;-70
2022/02/02 05:09:54;;;;;;;;;;;8.50;99.90;;;;;;5015119;28;19991;-70
2022/02/02 05:18:03;;;;;;;;;;;8.50;99.90;;;;;;5015539;28;19947;-70
2022/02/02 05:53:28;;;;;;;;;;;8.60;99.90;;;;;;5011905;28;19936;-69
2022/02/02 05:55:57;;;;;;;;;;;8.60;99.90;;;;;;5020356;28;19929;-70
2022/02/02 05:58:25;;;;;;;;;;;8.60;99.90;;;;;;5017980;28;19979;-69
2022/02/02 06:00:53;;;;;;;;;;;8.70;99.90;;;;;;5019040;28;20426;-69
2022/02/02 06:03:24;;;;;;;;;;;8.80;99.90;;;;;;5020241;28;19952;-69
2022/02/02 06:05:51;;;;;;;;;;;8.80;99.90;;;;;;5018953;28;19961;-70
2022/02/02 06:08:18;;;;;;;;;;;8.70;99.90;;;;;;5019766;28;19956;-69
2022/02/02 06:10:45;;;;;;;;;;;8.80;99.90;;;;;;5018224;28;20379;-69
2022/02/02 06:13:13;;;;;;;;;;;8.80;99.90;;;;;;5021314;28;19925;-70
2022/02/02 06:15:41;;;;;;;;;;;8.80;99.90;;;;;;5018529;28;19926;-69
2022/02/02 06:18:08;;;;;;;;;;;8.80;99.90;;;;;;5021167;28;19933;-69
2022/02/02 06:20:35;;;;;;;;;;;8.70;99.90;;;;;;5017064;28;20400;-69
2022/02/02 06:23:07;;;;;;;;;;;8.70;99.90;;;;;;5017067;28;19929;-69
2022/02/02 06:25:37;;;;;;;;;;;8.70;99.90;;;;;;5017317;28;19929;-69
2022/02/02 06:28:06;;;;;;;;;;;8.70;99.90;;;;;;5017849;28;19947;-69
2022/02/02 06:30:34;;;;;;;;;;;8.60;99.90;;;;;;5014955;28;20344;-69
2022/02/02 06:33:04;;;;;;;;;;;8.70;99.90;;;;;;5019179;28;20055;-69
2022/02/02 06:35:31;;;;;;;;;;;8.60;99.90;;;;;;5016851;28;19965;-69
2022/02/02 06:37:58;;;;;;;;;;;8.60;99.90;;;;;;5010755;28;19933;-68
2022/02/02 06:40:25;;;;;;;;;;;8.60;99.90;;;;;;5017838;28;20011;-69
2022/02/02 06:42:52;;;;;;;;;;;8.50;99.90;;;;;;5016591;28;19932;-69
2022/02/02 06:45:19;;;;;;;;;;;8.50;99.90;;;;;;5012831;28;22044;-69
2022/02/02 06:47:47;;;;;;;;;;;8.60;99.90;;;;;;5016026;28;19933;-69
2022/02/02 06:50:18;;;;;;;;;;;8.50;99.90;;;;;;5013584;28;20262;-70
2022/02/02 06:52:49;;;;;;;;;;;8.50;99.90;;;;;;5018633;28;19925;-70
2022/02/02 06:55:27;;;;;;;;;;;8.50;99.90;;;;;;5015369;28;20000;-70
2022/02/02 06:58:06;;;;;;;;;;;8.50;99.90;;;;;;5017924;28;19929;-72
2022/02/02 07:00:41;;;;;;;;;;;8.50;99.90;;;;;;5014769;28;20339;-69
2022/02/02 07:03:22;;;;;;;;;;;8.60;99.90;;;;;;5012896;28;19925;-69
2022/02/02 07:06:04;;;;;;;;;;;8.60;99.90;;;;;;5020535;28;19925;-70
2022/02/02 07:08:38;;;;;;;;;;;8.60;99.90;;;;;;5015510;28;19929;-71
2022/02/02 07:11:17;;;;;;;;;;;8.70;99.90;;;;;;5021762;28;19925;-69
2022/02/02 07:14:05;;;;;;;;;;;8.60;99.90;;;;;;5022781;28;19943;-71
2022/02/02 07:19:35;;;;;;;;;;;8.70;99.90;;;;;;5019899;28;20339;-69
2022/02/02 07:22:18;;;;;;;;;;;8.70;99.90;;;;;;5020287;28;20048;-71
2022/02/02 07:25:20;;;;;;;;;;;8.70;99.90;;;;;;5019794;28;19931;-71
2022/02/02 07:27:56;;;;;;;;;;;8.60;99.90;;;;;;5022546;28;20603;-69
2022/02/02 07:33:26;;;;;;;;;;;8.70;99.90;;;;;;4970071;28;20393;-69
2022/02/02 07:36:02;;;;;;;;;;;8.70;99.90;;;;;;4976484;28;19929;-70
2022/02/02 07:38:35;;;;;;;;;;;8.60;99.90;;;;;;4980081;28;19968;-69
2022/02/02 07:41:05;;;;;;;;;;;8.60;99.90;;;;;;4982218;28;20377;-69
2022/02/02 07:43:35;;;;;;;;;;;8.60;99.90;;;;;;4977111;28;19930;-68
2022/02/02 07:46:03;;;;;;;;;;;8.60;99.90;;;;;;5013004;28;19973;-68
2022/02/02 07:48:30;;;;;;;;;;;8.50;99.90;;;;;;5015764;28;20400;-68
2022/02/02 07:50:59;;;;;;;;;;;8.50;99.90;;;;;;5017946;28;19925;-70
2022/02/02 07:53:34;;;;;;;;;;;8.50;99.90;;;;;;5012925;28;19971;-68
2022/02/02 07:56:04;;;;;;;;;;;8.60;99.90;;;;;;5015707;28;20304;-68
2022/02/02 07:58:32;;;;;;;;;;;8.60;99.90;;;;;;5012475;28;19983;-68
2022/02/02 08:00:59;;;;;;;;;;;8.70;99.90;;;;;;5015067;28;19932;-68
2022/02/02 08:03:27;;;;;;;;;;;8.70;99.90;;;;;;5016484;28;19990;-68
2022/02/02 08:05:54;;;;;;;;;;;8.70;99.90;;;;;;5018650;28;20032;-68
2022/02/02 08:08:32;;;;;;;;;;;8.70;99.90;;;;;;5017984;28;20326;-69
2022/02/02 08:11:03;;;;;;;;;;;8.70;99.90;;;;;;5017048;28;20400;-68
2022/02/02 08:13:37;;;;;;;;;;;8.70;99.90;;;;;;5015500;28;20454;-69
2022/02/02 08:16:07;;;;;;;;;;;8.80;99.90;;;;;;5012656;28;19930;-69
2022/02/02 08:18:33;;;;;;;;;;;8.80;99.90;;;;;;5010955;28;19968;-68
2022/02/02 08:21:00;;;;;;;;;;;8.90;99.90;;;;;;5017636;28;20030;-68
2022/02/02 08:23:28;;;;;;;;;;;8.90;99.90;;;;;;5014725;28;19933;-68
2022/02/02 08:25:57;;;;;;;;;;;9.00;99.90;;;;;;5008381;28;20024;-68
2022/02/02 08:28:24;;;;;;;;;;;9.00;99.90;;;;;;5012615;28;20300;-68
2022/02/02 08:30:51;;;;;;;;;;;9.00;99.90;;;;;;5016720;28;20060;-68
2022/02/02 08:33:21;;;;;;;;;;;9.00;99.90;;;;;;5015448;28;19930;-68
2022/02/02 08:35:51;;;;;;;;;;;8.90;99.90;;;;;;5016222;28;20407;-68
2022/02/02 08:38:31;;;;;;;;;;;8.90;99.90;;;;;;5014377;28;19980;-68
2022/02/02 08:41:03;;;;;;;;;;;8.90;99.90;;;;;;5014727;28;19933;-68
2022/02/02 08:43:34;;;;;;;;;;;8.90;99.90;;;;;;5012177;28;20418;-67
2022/02/02 08:46:08;;;;;;;;;;;9.00;99.90;;;;;;5019497;28;20429;-67
2022/02/02 08:48:37;;;;;;;;;;;9.00;99.90;;;;;;5010704;28;19933;-69
2022/02/02 08:51:07;;;;;;;;;;;9.00;99.90;;;;;;5010114;28;20048;-67
2022/02/02 08:53:41;;;;;;;;;;;9.00;99.90;;;;;;5013562;28;20004;-68
2022/02/02 08:56:32;;;;;;;;;;;9.10;99.90;;;;;;5015246;28;19991;-68
2022/02/02 08:59:04;;;;;;;;;;;9.10;99.90;;;;;;5013672;28;19932;-68
2022/02/02 09:01:34;;;;;;;;;;;9.10;99.90;;;;;;5011295;28;19938;-69
2022/02/02 09:06:45;;;;;;;;;;;9.20;99.90;;;;;;5020373;28;20451;-68
2022/02/02 09:09:15;;;;;;;;;;;9.20;99.90;;;;;;5013299;28;19925;-67
2022/02/02 09:20:22;;;;;;;;;;;9.20;99.90;;;;;;5010325;28;19976;-67
2022/02/02 09:25:38;;;;;;;;;;;9.40;99.90;;;;;;5011366;28;20502;-67
2022/02/02 09:33:56;;;;;;;;;;;9.60;99.90;;;;;;5012771;28;19948;-69
2022/02/02 09:36:26;;;;;;;;;;;9.60;99.90;;;;;;5007561;28;19925;-68
2022/02/02 09:38:54;;;;;;;;;;;9.60;99.90;;;;;;5008105;28;19941;-69
2022/02/02 09:41:37;;;;;;;;;;;9.60;99.90;;;;;;5016772;28;19929;-68
2022/02/02 09:44:08;;;;;;;;;;;9.60;99.90;;;;;;5017268;28;20393;-68
2022/02/02 09:46:42;;;;;;;;;;;9.60;99.90;;;;;;5013713;28;19937;-67
2022/02/02 09:49:14;;;;;;;;;;;9.50;99.90;;;;;;5017908;28;19925;-67
2022/02/02 09:51:45;;;;;;;;;;;9.40;99.90;;;;;;5022117;28;20430;-68
2022/02/02 09:54:18;;;;;;;;;;;9.40;99.90;;;;;;5013786;28;19945;-67
2022/02/02 09:57:25;;;;;;;;;;;9.40;99.90;;;;;;5016692;28;19940;-67
2022/02/02 10:02:48;;;;;;;;;;;9.60;99.90;;;;;;5002526;28;20753;-67
2022/02/02 10:05:16;;;;;;;;;;;9.60;99.90;;;;;;5008179;28;20040;-67
2022/02/02 10:08:10;;;;;;;;;;;9.60;99.90;;;;;;5018676;28;19926;-68
2022/02/02 10:13:35;;;;;;;;;;;9.60;99.90;;;;;;5015079;28;19925;-68
2022/02/02 10:16:14;;;;;;;;;;;9.60;99.90;;;;;;5011604;28;19925;-68
2022/02/02 10:18:41;;;;;;;;;;;9.50;99.90;;;;;;5018357;28;19925;-68
2022/02/02 10:21:08;;;;;;;;;;;9.60;99.90;;;;;;4998034;28;19933;-68
2022/02/02 10:23:35;;;;;;;;;;;9.50;99.90;;;;;;5021412;28;19925;-68
2022/02/02 10:26:13;;;;;;;;;;;9.60;99.90;;;;;;5024049;28;19925;-67
2022/02/02 10:28:40;;;;;;;;;;;9.60;99.90;;;;;;5019395;28;20443;-68
2022/02/02 10:31:08;;;;;;;;;;;9.70;99.90;;;;;;5022189;28;19951;-68
2022/02/02 10:33:36;;;;;;;;;;;9.70;99.90;;;;;;5021295;28;20269;-68
2022/02/02 10:36:09;;;;;;;;;;;9.80;99.90;;;;;;5018288;28;19972;-67
2022/02/02 10:38:43;;;;;;;;;;;9.80;99.90;;;;;;5019972;28;19984;-67
2022/02/02 10:41:17;;;;;;;;;;;9.80;99.90;;;;;;5022825;28;19933;-67
2022/02/02 10:43:50;;;;;;;;;;;9.60;99.90;;;;;;5021035;28;19932;-66
2022/02/02 10:46:24;;;;;;;;;;;9.50;99.90;;;;;;5018192;28;19933;-66
2022/02/02 10:48:58;;;;;;;;;;;9.60;99.90;;;;;;5019813;28;19960;-68
2022/02/02 10:51:33;;;;;;;;;;;9.70;99.90;;;;;;5015957;28;20034;-67
2022/02/02 10:56:56;;;;;;;;;;;9.60;99.90;;;;;;5003973;28;19925;-70
2022/02/02 10:59:35;;;;;;;;;;;9.60;99.90;;;;;;5019228;28;19934;-68
2022/02/02 11:07:48;;;;;;;;;;;9.90;99.90;;;;;;4959470;28;19926;-68
2022/02/02 11:10:15;;;;;;;;;;;9.90;99.90;;;;;;4961120;28;19927;-68
2022/02/02 11:12:42;;;;;;;;;;;9.90;99.90;;;;;;4984806;28;19932;-68
2022/02/02 11:15:12;;;;;;;;;;;9.90;99.90;;;;;;5019086;28;19933;-68
2022/02/02 11:17:53;;;;;;;;;;;9.90;99.90;;;;;;5013737;28;20396;-68
2022/02/02 11:20:19;;;;;;;;;;;9.90;99.90;;;;;;5016496;28;20084;-68
2022/02/02 11:22:47;;;;;;;;;;;9.80;99.90;;;;;;5015107;28;19935;-68
2022/02/02 11:25:33;;;;;;;;;;;9.80;99.90;;;;;;5014880;28;19937;-68
2022/02/02 11:28:00;;;;;;;;;;;9.80;99.90;;;;;;5019082;28;20042;-69
2022/02/02 11:30:42;;;;;;;;;;;9.80;99.90;;;;;;5019439;28;20633;-68
2022/02/02 11:33:21;;;;;;;;;;;9.80;99.90;;;;;;5021220;28;20019;-70
2022/02/02 11:35:50;;;;;;;;;;;9.80;99.90;;;;;;5023998;28;20304;-67
2022/02/02 11:38:34;;;;;;;;;;;9.80;99.90;;;;;;5018964;28;19929;-68
2022/02/02 11:41:17;;;;;;;;;;;9.90;99.90;;;;;;5015278;28;19940;-67
2022/02/02 11:43:58;;;;;;;;;;;9.90;99.90;;;;;;5002210;28;19925;-68
2022/02/02 11:46:46;;;;;;;;;;;10.00;99.90;;;;;;5008641;28;20390;-68
2022/02/02 11:49:17;;;;;;;;;;;10.10;99.90;;;;;;5013577;28;19987;-68
2022/02/02 11:51:44;;;;;;;;;;;10.10;99.90;;;;;;5018833;28;19925;-68
2022/02/02 11:54:11;;;;;;;;;;;10.10;99.90;;;;;;5012671;28;20063;-68
2022/02/02 11:57:04;;;;;;;;;;;10.20;99.90;;;;;;5015700;28;19932;-68
2022/02/02 11:59:52;;;;;;;;;;;10.40;99.90;;;;;;5001309;28;19934;-68
2022/02/02 12:02:32;;;;;;;;;;;10.50;99.90;;;;;;5018584;28;20054;-68
2022/02/02 12:05:09;;;;;;;;;;;10.60;99.90;;;;;;5017948;28;19972;-68
2022/02/02 12:07:52;;;;;;;;;;;10.60;99.90;;;;;;5014689;28;19933;-69
2022/02/02 12:10:41;;;;;;;;;;;10.60;99.90;;;;;;5013250;28;20388;-69
2022/02/02 12:49:41;;;;;;;;;;;10.30;99.90;;;;;;5015274;28;19932;-68
2022/02/02 12:57:48;;;;;;;;;;;10.30;99.90;;;;;;4992263;28;20379;-68
2022/02/02 13:00:21;;;;;;;;;;;10.40;99.90;;;;;;5016611;28;19931;-68
2022/02/02 13:02:49;;;;;;;;;;;10.30;99.90;;;;;;5012553;28;20016;-69
2022/02/02 13:05:16;;;;;;;;;;;10.20;99.90;;;;;;5007912;28;20404;-69
2022/02/02 13:07:42;;;;;;;;;;;10.20;99.90;;;;;;5014032;28;20308;-67
2022/02/02 13:10:12;;;;;;;;;;;10.30;99.90;;;;;;5012346;28;20015;-68
2022/02/02 13:12:42;;;;;;;;;;;10.30;99.90;;;;;;5018310;28;19979;-68
2022/02/02 13:15:29;;;;;;;;;;;10.30;99.90;;;;;;5011892;28;19933;-68
2022/02/02 13:18:15;;;;;;;;;;;10.20;99.90;;;;;;5015395;28;20395;-68
2022/02/02 13:20:53;;;;;;;;;;;10.10;99.90;;;;;;5015652;28;20024;-69
2022/02/02 13:23:25;;;;;;;;;;;10.10;99.90;;;;;;5013520;28;19929;-68
2022/02/02 13:25:56;;;;;;;;;;;10.10;99.90;;;;;;5018301;28;19925;-69
2022/02/02 13:28:38;;;;;;;;;;;10.10;99.90;;;;;;5011023;28;19925;-70
2022/02/02 13:31:05;;;;;;;;;;;9.90;99.90;;;;;;5016460;28;19929;-69
2022/02/02 13:33:36;;;;;;;;;;;9.90;99.90;;;;;;5024439;28;19960;-68
2022/02/02 13:36:17;;;;;;;;;;;9.90;99.90;;;;;;5009674;28;19991;-68
2022/02/02 13:39:16;;;;;;;;;;;9.90;99.90;;;;;;5014836;28;20451;-67
2022/02/02 13:44:46;;;;;;;;;;;9.80;99.90;;;;;;5015154;28;20071;-69
2022/02/02 13:47:41;;;;;;;;;;;9.80;99.90;;;;;;5019398;28;19932;-69
2022/02/02 13:53:36;;;;;;;;;;;9.80;99.90;;;;;;5000294;28;19925;-69
2022/02/02 13:56:14;;;;;;;;;;;9.90;99.90;;;;;;5019491;28;19929;-70
2022/02/02 13:59:05;;;;;;;;;;;10.00;99.90;;;;;;5014928;28;19940;-69
2022/02/02 14:01:39;;;;;;;;;;;10.00;99.90;;;;;;5024379;28;19932;-68
2022/02/02 14:04:16;;;;;;;;;;;10.00;99.90;;;;;;5016356;28;19932;-69
2022/02/02 14:06:51;;;;;;;;;;;10.00;99.90;;;;;;5018695;28;19940;-68
2022/02/02 14:09:23;;;;;;;;;;;10.00;99.90;;;;;;5016585;28;19925;-69
2022/02/02 14:31:09;;;;;;;;;;;10.00;99.90;;;;;;5015179;28;19932;-68
2022/02/02 14:33:36;;;;;;;;;;;10.00;99.90;;;;;;5014184;28;19926;-68
2022/02/02 14:36:06;;;;;;;;;;;9.90;99.90;;;;;;5013657;28;19982;-68
2022/02/02 14:38:40;;;;;;;;;;;10.00;99.90;;;;;;5011217;28;19933;-68
2022/02/02 14:41:15;;;;;;;;;;;9.90;99.90;;;;;;5011227;28;19933;-68
2022/02/02 14:43:50;;;;;;;;;;;9.80;99.90;;;;;;5015919;28;19929;-67
2022/02/02 14:46:23;;;;;;;;;;;9.80;99.90;;;;;;5015616;28;19971;-68
2022/02/02 14:48:54;;;;;;;;;;;9.80;99.90;;;;;;5015586;28;20349;-70
2022/02/02 14:51:34;;;;;;;;;;;9.80;99.90;;;;;;5021028;28;20382;-68
2022/02/02 14:54:10;;;;;;;;;;;9.70;99.90;;;;;;5013155;28;19929;-69
2022/02/02 15:24:52;;;;;;;;;;;9.60;99.90;;;;;;5015592;28;19937;-69
2022/02/02 15:27:28;;;;;;;;;;;9.60;99.90;;;;;;5015935;28;19925;-69
2022/02/02 15:30:10;;;;;;;;;;;9.60;99.90;;;;;;5014472;28;20291;-68
2022/02/02 15:32:41;;;;;;;;;;;9.70;99.90;;;;;;5015232;28;19943;-68
2022/02/02 15:35:13;;;;;;;;;;;9.60;99.90;;;;;;5010158;28;20020;-68
2022/02/02 15:37:51;;;;;;;;;;;9.60;99.90;;;;;;5013127;28;20439;-68
2022/02/02 15:40:28;;;;;;;;;;;9.60;99.90;;;;;;5011105;28;20689;-70
2022/02/02 15:43:07;;;;;;;;;;;9.70;99.90;;;;;;5006167;28;20300;-69
2022/02/02 16:00:06;;;;;;;;;;;9.50;99.90;;;;;;5017491;28;20416;-68
2022/02/02 16:03:00;;;;;;;;;;;9.50;99.90;;;;;;5018324;28;19933;-68
2022/02/02 16:05:29;;;;;;;;;;;9.50;99.90;;;;;;5009513;28;19925;-69
2022/02/02 16:08:03;;;;;;;;;;;9.50;99.90;;;;;;5014695;28;19932;-68
2022/02/02 16:10:43;;;;;;;;;;;9.50;99.90;;;;;;5021307;28;19925;-69
2022/02/02 16:13:25;;;;;;;;;;;10.10;99.90;;;;;;5015904;28;19925;-68
2022/02/02 16:15:55;;;;;;;;;;;9.40;99.90;;;;;;5011391;28;19929;-66
2022/02/02 16:18:35;;;;;;;;;;;9.40;99.90;;;;;;5011929;28;19983;-68
2022/02/02 16:32:21;;;;;;;;;;;9.40;99.90;;;;;;5014527;28;20024;-68
2022/02/02 16:35:14;;;;;;;;;;;9.40;99.90;;;;;;5016232;28;19933;-69
2022/02/02 16:37:43;;;;;;;;;;;9.50;99.90;;;;;;5018625;28;19925;-68
2022/02/02 16:40:15;;;;;;;;;;;9.40;99.90;;;;;;5016236;28;19926;-68
2022/02/02 16:43:13;;;;;;;;;;;9.40;99.90;;;;;;5014723;28;19930;-68
2022/02/02 16:45:40;;;;;;;;;;;9.40;99.90;;;;;;5015142;28;20021;-68
2022/02/02 16:48:07;;;;;;;;;;;9.30;99.90;;;;;;5015978;28;19926;-68
2022/02/02 16:50:37;;;;;;;;;;;9.30;99.90;;;;;;5012024;28;19968;-69
2022/02/02 16:53:22;;;;;;;;;;;9.30;99.90;;;;;;5021432;28;19925;-68
2022/02/02 16:55:55;;;;;;;;;;;9.30;99.90;;;;;;5012037;28;19929;-68
2022/02/02 17:31:36;;;;;;;;;;;9.10;99.90;;;;;;5020119;28;19940;-68
2022/02/02 17:34:10;;;;;;;;;;;9.10;99.90;;;;;;5021579;28;19925;-67
2022/02/02 17:36:42;;;;;;;;;;;9.10;99.90;;;;;;5019038;28;19925;-68
2022/02/02 17:39:12;;;;;;;;;;;9.00;99.90;;;;;;5024720;28;20030;-69
2022/02/02 18:12:33;;;;;;;;;;;9.10;99.90;;;;;;5017993;28;19956;-69
2022/02/02 18:20:39;;;;;;;;;;;9.10;99.90;;;;;;5020192;28;20430;-68
2022/02/02 18:23:13;;;;;;;;;;;9.10;99.90;;;;;;5018871;28;19980;-68
2022/02/02 18:25:45;;;;;;;;;;;9.00;99.90;;;;;;5021044;28;19940;-68
2022/02/02 18:28:18;;;;;;;;;;;9.10;99.90;;;;;;5019003;28;20411;-68
2022/02/02 18:31:00;;;;;;;;;;;9.10;99.90;;;;;;5023029;28;19926;-68
2022/02/02 18:33:40;;;;;;;;;;;9.10;99.90;;;;;;5016249;28;20468;-68
2022/02/02 18:36:21;;;;;;;;;;;9.10;99.90;;;;;;5015184;28;19979;-68
2022/02/02 18:50:07;;;;;;;;;;;8.90;99.90;;;;;;4990809;28;21217;-69
2022/02/02 18:52:57;;;;;;;;;;;8.90;99.90;;;;;;5009753;28;19932;-69
2022/02/02 18:55:37;;;;;;;;;;;8.90;99.90;;;;;;5015292;28;19955;-69
2022/02/02 18:58:12;;;;;;;;;;;8.90;99.90;;;;;;5012110;28;20396;-68
2022/02/02 19:00:52;;;;;;;;;;;8.80;99.90;;;;;;5022391;28;19968;-68
2022/02/02 19:55:41;;;;;;;;;;;8.90;99.90;;;;;;4985962;28;20054;-68
2022/02/02 20:04:00;;;;;;;;;;;8.90;99.90;;;;;;5021300;28;19932;-68
2022/02/02 20:06:42;;;;;;;;;;;8.90;99.90;;;;;;5017568;28;19933;-68
2022/02/02 20:11:54;;;;;;;;;;;8.90;99.90;;;;;;5017550;28;19944;-69
2022/02/02 20:14:20;;;;;;;;;;;9.00;99.90;;;;;;5006826;28;19944;-71
2022/02/02 20:16:48;;;;;;;;;;;9.00;99.90;;;;;;5014097;28;19943;-70
2022/02/02 20:19:15;;;;;;;;;;;9.00;99.90;;;;;;5013616;28;19926;-69
2022/02/02 20:21:53;;;;;;;;;;;9.00;99.90;;;;;;5022857;28;19933;-71
2022/02/02 20:24:24;;;;;;;;;;;9.00;99.90;;;;;;5019823;28;20383;-69
2022/02/02 20:26:51;;;;;;;;;;;9.00;99.90;;;;;;5022456;28;19925;-69
2022/02/02 20:29:20;;;;;;;;;;;9.00;99.90;;;;;;5013393;28;20067;-69
2022/02/02 20:31:46;;;;;;;;;;;9.00;99.90;;;;;;5014132;28;19947;-70
2022/02/02 20:34:14;;;;;;;;;;;9.00;99.90;;;;;;5013794;28;19929;-69
2022/02/02 20:36:40;;;;;;;;;;;9.00;99.90;;;;;;5017868;28;19925;-69
2022/02/02 20:39:22;;;;;;;;;;;9.00;99.90;;;;;;5014721;28;20388;-69
2022/02/02 20:41:50;;;;;;;;;;;9.00;99.90;;;;;;5014086;28;20028;-70
2022/02/02 20:44:23;;;;;;;;;;;9.00;99.90;;;;;;5014630;28;19979;-69
2022/02/02 21:00:11;;;;;;;;;;;9.00;99.90;;;;;;5017266;28;19925;-69
2022/02/02 21:01:27;;;;;;;;;;;8.90;99.90;;;;;;5002309;28;20076;-69
2022/02/02 21:04:05;;;;;;;;;;;8.90;99.90;;;;;;5002609;28;19941;-69
2022/02/02 21:06:44;;;;;;;;;;;8.90;99.90;;;;;;5001528;28;20277;-69
2022/02/02 21:09:28;;;;;;;;;;;8.90;99.90;;;;;;5005109;28;19995;-69
2022/02/02 21:13:40;;;;;;;;;;;8.90;99.90;;;;;;5005299;28;20439;-68
2022/02/02 21:14:45;;;;;;;;;;;8.90;99.90;;;;;;5002498;28;19933;-69
2022/02/02 21:17:19;;;;;;;;;;;8.90;99.90;;;;;;5002138;28;19945;-69
2022/02/02 21:19:53;;;;;;;;;;;8.90;99.90;;;;;;5003762;28;19960;-69
2022/02/02 21:22:21;;;;;;;;;;;8.90;99.90;;;;;;5002809;28;19933;-69
2022/02/02 21:24:53;;;;;;;;;;;8.90;99.90;;;;;;5002627;28;20757;-69
2022/02/02 21:27:25;;;;;;;;;;;8.90;99.90;;;;;;5002482;28;20436;-69
2022/02/02 21:29:52;;;;;;;;;;;8.90;99.90;;;;;;5003361;28;20344;-69
2022/02/02 21:32:19;;;;;;;;;;;8.90;99.90;;;;;;5005383;28;19933;-69
2022/02/02 21:34:49;;;;;;;;;;;8.90;99.90;;;;;;5010248;28;19929;-70
2022/02/02 21:37:15;;;;;;;;;;;8.90;99.90;;;;;;5008362;28;19930;-69
2022/02/02 21:39:52;;;;;;;;;;;8.90;99.90;;;;;;5009864;28;19929;-69
2022/02/02 21:42:19;;;;;;;;;;;8.90;99.90;;;;;;5004571;28;19930;-70
2022/02/02 21:44:46;;;;;;;;;;;8.90;99.90;;;;;;5009004;28;20418;-69
2022/02/02 21:47:12;;;;;;;;;;;8.90;99.90;;;;;;5008374;28;19969;-69
2022/02/02 21:49:42;;;;;;;;;;;8.90;99.90;;;;;;5010296;28;19959;-71
2022/02/02 21:52:12;;;;;;;;;;;8.90;99.90;;;;;;5004772;28;19933;-71
2022/02/02 21:54:39;;;;;;;;;;;9.00;99.90;;;;;;5006204;28;19991;-70
2022/02/02 21:57:06;;;;;;;;;;;8.90;99.90;;;;;;5002242;28;19926;-71
2022/02/02 21:59:33;;;;;;;;;;;8.90;99.90;;;;;;5007572;28;19937;-70
2022/02/02 22:02:00;;;;;;;;;;;8.90;99.90;;;;;;5021280;28;19976;-70
2022/02/02 22:04:26;;;;;;;;;;;9.00;99.90;;;;;;5018758;28;20007;-72
2022/02/02 22:06:54;;;;;;;;;;;9.00;99.90;;;;;;5017959;28;20308;-71
2022/02/02 22:09:22;;;;;;;;;;;8.90;99.90;;;;;;5016023;28;19933;-71
2022/02/02 22:11:50;;;;;;;;;;;9.00;99.90;;;;;;5016759;28;19939;-71
2022/02/02 22:14:21;;;;;;;;;;;9.00;99.90;;;;;;5021779;28;19928;-71
2022/02/02 22:16:49;;;;;;;;;;;9.00;99.90;;;;;;5022086;28;20036;-71
2022/02/02 22:19:16;;;;;;;;;;;9.00;99.90;;;;;;5019219;28;20284;-71
2022/02/02 22:21:42;;;;;;;;;;;9.00;99.90;;;;;;5023543;28;20012;-71
2022/02/02 22:24:09;;;;;;;;;;;9.00;99.90;;;;;;5019049;28;20384;-71
2022/02/02 22:26:37;;;;;;;;;;;9.00;99.90;;;;;;5019218;28;19933;-71
2022/02/02 22:29:04;;;;;;;;;;;9.00;99.90;;;;;;5021767;28;19925;-71
2022/02/02 22:31:33;;;;;;;;;;;9.00;99.90;;;;;;5021637;28;20388;-72
2022/02/02 22:34:00;;;;;;;;;;;9.00;99.90;;;;;;5022635;28;20400;-71
2022/02/02 22:36:27;;;;;;;;;;;9.00;99.90;;;;;;5020975;28;19964;-71
2022/02/02 22:38:53;;;;;;;;;;;9.00;99.90;;;;;;5021305;28;19948;-71
2022/02/02 22:41:20;;;;;;;;;;;8.90;99.90;;;;;;5023981;28;20392;-71
2022/02/02 22:43:51;;;;;;;;;;;8.90;99.90;;;;;;5029716;28;20019;-71
2022/02/02 22:46:23;;;;;;;;;;;8.90;99.90;;;;;;5032759;28;19929;-71
2022/02/02 22:48:54;;;;;;;;;;;8.90;99.90;;;;;;5022709;28;19933;-71
2022/02/02 22:51:20;;;;;;;;;;;8.90;99.90;;;;;;5025167;28;20024;-71
2022/02/02 22:53:50;;;;;;;;;;;8.90;99.90;;;;;;5023694;28;19929;-71
2022/02/02 22:56:17;;;;;;;;;;;8.90;99.90;;;;;;5017778;28;19933;-71
2022/02/02 22:58:47;;;;;;;;;;;8.90;99.90;;;;;;5020126;28;20306;-71
2022/02/02 23:01:16;;;;;;;;;;;8.90;99.90;;;;;;5023061;28;19925;-69
2022/02/02 23:03:43;;;;;;;;;;;8.90;99.90;;;;;;5021888;28;19934;-71
2022/02/02 23:06:09;;;;;;;;;;;8.90;99.90;;;;;;5022738;28;19933;-71